sensor_id;sensor_type;location;lat;lon;timestamp;pressure;altitude;pressure_sealevel;temperature;humidity
57412;BME280;43247;52.828;-8.980;2024-02-23T00:00:16;98351.53;;;5.79;85.04
57412;BME280;43247;52.828;-8.980;2024-02-23T00:01:16;98352.26;;;5.80;85.08
57412;BME280;43247;52.828;-8.980;2024-02-23T00:02:16;98348.79;;;5.81;85.06
57412;BME280;43247;52.828;-8.980;2024-02-23T00:03:16;98350.12;;;5.81;85.06
57412;BME280;43247;52.828;-8.980;2024-02-23T00:04:17;98350.65;;;5.80;85.09
57412;BME280;43247;52.828;-8.980;2024-02-23T00:05:17;98350.32;;;5.79;85.12
57412;BME280;43247;52.828;-8.980;2024-02-23T00:06:17;98347.74;;;5.79;85.21
57412;BME280;43247;52.828;-8.980;2024-02-23T00:07:17;98350.21;;;5.78;85.21
57412;BME280;43247;52.828;-8.980;2024-02-23T00:08:17;98351.45;;;5.78;85.21
57412;BME280;43247;52.828;-8.980;2024-02-23T00:09:18;98349.51;;;5.76;85.27
57412;BME280;43247;52.828;-8.980;2024-02-23T00:10:18;98351.63;;;5.76;85.26
57412;BME280;43247;52.828;-8.980;2024-02-23T00:11:18;98349.09;;;5.76;85.25
57412;BME280;43247;52.828;-8.980;2024-02-23T00:12:18;98350.54;;;5.75;85.26
57412;BME280;43247;52.828;-8.980;2024-02-23T00:13:18;98350.10;;;5.75;85.23
57412;BME280;43247;52.828;-8.980;2024-02-23T00:14:18;98346.76;;;5.74;85.23
57412;BME280;43247;52.828;-8.980;2024-02-23T00:15:19;98343.48;;;5.71;85.26
57412;BME280;43247;52.828;-8.980;2024-02-23T00:16:19;98341.58;;;5.72;85.23
57412;BME280;43247;52.828;-8.980;2024-02-23T00:17:19;98336.57;;;5.71;85.23
57412;BME280;43247;52.828;-8.980;2024-02-23T00:18:19;98332.95;;;5.71;85.23
57412;BME280;43247;52.828;-8.980;2024-02-23T00:19:19;98329.47;;;5.70;85.22
57412;BME280;43247;52.828;-8.980;2024-02-23T00:20:20;98324.99;;;5.71;85.13
57412;BME280;43247;52.828;-8.980;2024-02-23T00:21:20;98324.06;;;5.71;85.14
57412;BME280;43247;52.828;-8.980;2024-02-23T00:22:21;98325.52;;;5.71;85.07
57412;BME280;43247;52.828;-8.980;2024-02-23T00:23:21;98322.89;;;5.70;85.10
57412;BME280;43247;52.828;-8.980;2024-02-23T00:24:21;98320.81;;;5.70;85.11
57412;BME280;43247;52.828;-8.980;2024-02-23T00:25:21;98318.66;;;5.70;85.11
57412;BME280;43247;52.828;-8.980;2024-02-23T00:26:21;98317.02;;;5.72;85.05
57412;BME280;43247;52.828;-8.980;2024-02-23T00:27:21;98315.80;;;5.72;85.01
57412;BME280;43247;52.828;-8.980;2024-02-23T00:28:22;98314.20;;;5.71;85.00
57412;BME280;43247;52.828;-8.980;2024-02-23T00:29:22;98314.02;;;5.70;85.05
57412;BME280;43247;52.828;-8.980;2024-02-23T00:30:22;98311.18;;;5.70;84.98
57412;BME280;43247;52.828;-8.980;2024-02-23T00:31:22;98311.29;;;5.70;85.03
57412;BME280;43247;52.828;-8.980;2024-02-23T00:32:23;98310.47;;;5.69;85.03
57412;BME280;43247;52.828;-8.980;2024-02-23T00:33:23;98310.08;;;5.72;85.01
57412;BME280;43247;52.828;-8.980;2024-02-23T00:34:23;98310.58;;;5.70;85.02
57412;BME280;43247;52.828;-8.980;2024-02-23T00:35:23;98310.81;;;5.71;84.98
57412;BME280;43247;52.828;-8.980;2024-02-23T00:36:24;98306.13;;;5.70;85.03
57412;BME280;43247;52.828;-8.980;2024-02-23T00:37:24;98304.87;;;5.70;85.00
57412;BME280;43247;52.828;-8.980;2024-02-23T00:38:24;98296.62;;;5.70;85.01
57412;BME280;43247;52.828;-8.980;2024-02-23T00:39:24;98297.16;;;5.70;85.03
57412;BME280;43247;52.828;-8.980;2024-02-23T00:40:25;98294.31;;;5.70;85.08
57412;BME280;43247;52.828;-8.980;2024-02-23T00:41:25;98293.17;;;5.70;85.10
57412;BME280;43247;52.828;-8.980;2024-02-23T00:42:25;98291.34;;;5.70;85.08
57412;BME280;43247;52.828;-8.980;2024-02-23T00:43:25;98292.28;;;5.70;85.07
57412;BME280;43247;52.828;-8.980;2024-02-23T00:44:26;98289.93;;;5.68;85.06
57412;BME280;43247;52.828;-8.980;2024-02-23T00:45:26;98291.94;;;5.68;85.10
57412;BME280;43247;52.828;-8.980;2024-02-23T00:46:26;98292.84;;;5.68;85.09
57412;BME280;43247;52.828;-8.980;2024-02-23T00:47:27;98296.11;;;5.68;85.09
57412;BME280;43247;52.828;-8.980;2024-02-23T00:48:27;98302.70;;;5.68;85.10
57412;BME280;43247;52.828;-8.980;2024-02-23T00:49:27;98305.51;;;5.69;85.06
57412;BME280;43247;52.828;-8.980;2024-02-23T00:50:27;98310.82;;;5.70;85.00
57412;BME280;43247;52.828;-8.980;2024-02-23T00:51:27;98311.77;;;5.69;85.04
57412;BME280;43247;52.828;-8.980;2024-02-23T00:52:28;98313.81;;;5.70;84.97
57412;BME280;43247;52.828;-8.980;2024-02-23T00:53:28;98310.77;;;5.69;85.03
57412;BME280;43247;52.828;-8.980;2024-02-23T00:54:28;98314.64;;;5.68;85.00
57412;BME280;43247;52.828;-8.980;2024-02-23T00:55:28;98318.62;;;5.69;85.04
57412;BME280;43247;52.828;-8.980;2024-02-23T00:56:28;98320.66;;;5.70;85.04
57412;BME280;43247;52.828;-8.980;2024-02-23T00:57:28;98328.46;;;5.69;85.05
57412;BME280;43247;52.828;-8.980;2024-02-23T00:58:28;98329.91;;;5.69;85.10
57412;BME280;43247;52.828;-8.980;2024-02-23T00:59:29;98341.82;;;5.72;85.07
57412;BME280;43247;52.828;-8.980;2024-02-23T01:00:29;98351.24;;;5.72;85.04
57412;BME280;43247;52.828;-8.980;2024-02-23T01:01:30;98356.49;;;5.72;85.26
57412;BME280;43247;52.828;-8.980;2024-02-23T01:02:30;98349.96;;;5.71;85.42
57412;BME280;43247;52.828;-8.980;2024-02-23T01:03:30;98346.96;;;5.73;85.56
57412;BME280;43247;52.828;-8.980;2024-02-23T01:04:30;98348.26;;;5.75;85.66
57412;BME280;43247;52.828;-8.980;2024-02-23T01:05:30;98335.23;;;5.74;85.77
57412;BME280;43247;52.828;-8.980;2024-02-23T01:06:30;98334.66;;;5.73;85.92
57412;BME280;43247;52.828;-8.980;2024-02-23T01:07:31;98330.51;;;5.75;86.01
57412;BME280;43247;52.828;-8.980;2024-02-23T01:08:31;98332.11;;;5.75;86.08
57412;BME280;43247;52.828;-8.980;2024-02-23T01:09:31;98334.24;;;5.73;86.14
57412;BME280;43247;52.828;-8.980;2024-02-23T01:10:31;98336.07;;;5.70;86.19
57412;BME280;43247;52.828;-8.980;2024-02-23T01:11:31;98337.20;;;5.72;86.12
57412;BME280;43247;52.828;-8.980;2024-02-23T01:12:31;98339.98;;;5.75;85.93
57412;BME280;43247;52.828;-8.980;2024-02-23T01:13:32;98339.57;;;5.74;85.86
57412;BME280;43247;52.828;-8.980;2024-02-23T01:14:32;98337.82;;;5.72;85.89
57412;BME280;43247;52.828;-8.980;2024-02-23T01:15:32;98334.45;;;5.70;85.86
57412;BME280;43247;52.828;-8.980;2024-02-23T01:16:32;98335.51;;;5.70;85.81
57412;BME280;43247;52.828;-8.980;2024-02-23T01:17:32;98332.73;;;5.70;85.76
57412;BME280;43247;52.828;-8.980;2024-02-23T01:18:33;98328.35;;;5.69;85.73
57412;BME280;43247;52.828;-8.980;2024-02-23T01:19:33;98322.29;;;5.71;85.64
57412;BME280;43247;52.828;-8.980;2024-02-23T01:20:33;98314.13;;;5.70;85.64
57412;BME280;43247;52.828;-8.980;2024-02-23T01:21:34;98307.20;;;5.69;85.65
57412;BME280;43247;52.828;-8.980;2024-02-23T01:22:34;98306.10;;;5.69;85.68
57412;BME280;43247;52.828;-8.980;2024-02-23T01:23:34;98302.97;;;5.69;85.62
57412;BME280;43247;52.828;-8.980;2024-02-23T01:24:34;98299.77;;;5.68;85.64
57412;BME280;43247;52.828;-8.980;2024-02-23T01:25:34;98299.85;;;5.68;85.66
57412;BME280;43247;52.828;-8.980;2024-02-23T01:26:35;98299.74;;;5.69;85.61
57412;BME280;43247;52.828;-8.980;2024-02-23T01:27:35;98297.21;;;5.69;85.57
57412;BME280;43247;52.828;-8.980;2024-02-23T01:28:35;98295.38;;;5.68;85.61
57412;BME280;43247;52.828;-8.980;2024-02-23T01:29:36;98294.14;;;5.67;85.59
57412;BME280;43247;52.828;-8.980;2024-02-23T01:30:36;98294.67;;;5.68;85.54
57412;BME280;43247;52.828;-8.980;2024-02-23T01:31:36;98294.33;;;5.68;85.52
57412;BME280;43247;52.828;-8.980;2024-02-23T01:32:36;98291.34;;;5.68;85.56
57412;BME280;43247;52.828;-8.980;2024-02-23T01:33:36;98292.68;;;5.69;85.51
57412;BME280;43247;52.828;-8.980;2024-02-23T01:34:37;98292.64;;;5.68;85.50
57412;BME280;43247;52.828;-8.980;2024-02-23T01:35:37;98293.79;;;5.67;85.50
57412;BME280;43247;52.828;-8.980;2024-02-23T01:36:38;98293.86;;;5.68;85.47
57412;BME280;43247;52.828;-8.980;2024-02-23T01:37:38;98293.59;;;5.69;85.43
57412;BME280;43247;52.828;-8.980;2024-02-23T01:38:38;98293.61;;;5.68;85.42
57412;BME280;43247;52.828;-8.980;2024-02-23T01:39:38;98291.26;;;5.69;85.33
57412;BME280;43247;52.828;-8.980;2024-02-23T01:40:38;98290.36;;;5.67;85.33
57412;BME280;43247;52.828;-8.980;2024-02-23T01:41:39;98292.75;;;5.68;85.34
57412;BME280;43247;52.828;-8.980;2024-02-23T01:42:39;98291.90;;;5.68;85.31
57412;BME280;43247;52.828;-8.980;2024-02-23T01:43:39;98292.95;;;5.68;85.32
57412;BME280;43247;52.828;-8.980;2024-02-23T01:44:39;98293.82;;;5.67;85.32
57412;BME280;43247;52.828;-8.980;2024-02-23T01:45:39;98293.39;;;5.68;85.32
57412;BME280;43247;52.828;-8.980;2024-02-23T01:46:39;98291.79;;;5.67;85.29
57412;BME280;43247;52.828;-8.980;2024-02-23T01:47:39;98291.82;;;5.67;85.27
57412;BME280;43247;52.828;-8.980;2024-02-23T01:48:40;98290.39;;;5.67;85.28
57412;BME280;43247;52.828;-8.980;2024-02-23T01:49:40;98292.14;;;5.68;85.23
57412;BME280;43247;52.828;-8.980;2024-02-23T01:50:40;98292.79;;;5.67;85.24
57412;BME280;43247;52.828;-8.980;2024-02-23T01:51:40;98292.92;;;5.67;85.23
57412;BME280;43247;52.828;-8.980;2024-02-23T01:52:41;98296.26;;;5.68;85.22
57412;BME280;43247;52.828;-8.980;2024-02-23T01:53:41;98297.12;;;5.67;85.25
57412;BME280;43247;52.828;-8.980;2024-02-23T01:54:41;98299.24;;;5.67;85.22
57412;BME280;43247;52.828;-8.980;2024-02-23T01:55:41;98297.83;;;5.66;85.24
57412;BME280;43247;52.828;-8.980;2024-02-23T01:56:41;98298.10;;;5.66;85.24
57412;BME280;43247;52.828;-8.980;2024-02-23T01:57:42;98299.20;;;5.65;85.24
57412;BME280;43247;52.828;-8.980;2024-02-23T01:58:42;98307.41;;;5.65;85.23
57412;BME280;43247;52.828;-8.980;2024-02-23T01:59:42;98311.23;;;5.65;85.21
57412;BME280;43247;52.828;-8.980;2024-02-23T02:00:42;98320.66;;;5.65;85.22
57412;BME280;43247;52.828;-8.980;2024-02-23T02:01:43;98329.59;;;5.65;85.18
57412;BME280;43247;52.828;-8.980;2024-02-23T02:02:43;98341.48;;;5.64;85.21
57412;BME280;43247;52.828;-8.980;2024-02-23T02:03:43;98341.20;;;5.64;85.12
57412;BME280;43247;52.828;-8.980;2024-02-23T02:04:43;98342.38;;;5.65;85.08
57412;BME280;43247;52.828;-8.980;2024-02-23T02:05:43;98337.05;;;5.64;85.34
57412;BME280;43247;52.828;-8.980;2024-02-23T02:06:45;98340.41;;;5.63;85.47
57412;BME280;43247;52.828;-8.980;2024-02-23T02:07:45;98328.69;;;5.63;85.53
57412;BME280;43247;52.828;-8.980;2024-02-23T02:08:44;98328.00;;;5.64;85.53
57412;BME280;43247;52.828;-8.980;2024-02-23T02:09:44;98338.55;;;5.65;85.53
57412;BME280;43247;52.828;-8.980;2024-02-23T02:10:44;98331.85;;;5.65;85.47
57412;BME280;43247;52.828;-8.980;2024-02-23T02:11:45;98339.89;;;5.65;85.46
57412;BME280;43247;52.828;-8.980;2024-02-23T02:12:45;98341.34;;;5.65;85.42
57412;BME280;43247;52.828;-8.980;2024-02-23T02:13:45;98341.82;;;5.65;85.37
57412;BME280;43247;52.828;-8.980;2024-02-23T02:14:45;98336.33;;;5.66;85.35
57412;BME280;43247;52.828;-8.980;2024-02-23T02:15:45;98340.98;;;5.68;85.27
57412;BME280;43247;52.828;-8.980;2024-02-23T02:16:46;98344.87;;;5.66;85.32
57412;BME280;43247;52.828;-8.980;2024-02-23T02:17:46;98352.33;;;5.66;85.33
57412;BME280;43247;52.828;-8.980;2024-02-23T02:18:46;98355.88;;;5.68;85.31
57412;BME280;43247;52.828;-8.980;2024-02-23T02:19:48;98352.92;;;5.67;85.37
57412;BME280;43247;52.828;-8.980;2024-02-23T02:20:51;98361.42;;;5.68;85.37
57412;BME280;43247;52.828;-8.980;2024-02-23T02:21:47;98360.20;;;5.68;85.37
57412;BME280;43247;52.828;-8.980;2024-02-23T02:22:48;98355.71;;;5.69;85.28
57412;BME280;43247;52.828;-8.980;2024-02-23T02:23:48;98349.95;;;5.67;85.27
57412;BME280;43247;52.828;-8.980;2024-02-23T02:24:48;98344.31;;;5.66;85.32
57412;BME280;43247;52.828;-8.980;2024-02-23T02:25:52;98341.58;;;5.65;85.33
57412;BME280;43247;52.828;-8.980;2024-02-23T02:26:48;98327.02;;;5.64;85.30
57412;BME280;43247;52.828;-8.980;2024-02-23T02:27:49;98323.47;;;5.62;85.32
57412;BME280;43247;52.828;-8.980;2024-02-23T02:28:49;98317.38;;;5.61;85.37
57412;BME280;43247;52.828;-8.980;2024-02-23T02:29:50;98315.85;;;5.62;85.34
57412;BME280;43247;52.828;-8.980;2024-02-23T02:30:50;98315.96;;;5.61;85.24
57412;BME280;43247;52.828;-8.980;2024-02-23T02:31:49;98310.49;;;5.59;85.21
57412;BME280;43247;52.828;-8.980;2024-02-23T02:32:49;98309.67;;;5.58;85.12
57412;BME280;43247;52.828;-8.980;2024-02-23T02:33:50;98312.07;;;5.59;85.01
57412;BME280;43247;52.828;-8.980;2024-02-23T02:34:50;98306.85;;;5.57;85.00
57412;BME280;43247;52.828;-8.980;2024-02-23T02:35:50;98310.48;;;5.56;84.95
57412;BME280;43247;52.828;-8.980;2024-02-23T02:36:50;98312.94;;;5.56;84.94
57412;BME280;43247;52.828;-8.980;2024-02-23T02:37:50;98314.74;;;5.55;84.86
57412;BME280;43247;52.828;-8.980;2024-02-23T02:38:51;98315.04;;;5.55;84.80
57412;BME280;43247;52.828;-8.980;2024-02-23T02:39:51;98319.11;;;5.55;84.75
57412;BME280;43247;52.828;-8.980;2024-02-23T02:40:51;98319.99;;;5.55;84.71
57412;BME280;43247;52.828;-8.980;2024-02-23T02:41:51;98324.53;;;5.55;84.68
57412;BME280;43247;52.828;-8.980;2024-02-23T02:42:51;98323.08;;;5.54;84.69
57412;BME280;43247;52.828;-8.980;2024-02-23T02:43:52;98315.42;;;5.61;84.69
57412;BME280;43247;52.828;-8.980;2024-02-23T02:44:52;98314.92;;;5.60;84.58
57412;BME280;43247;52.828;-8.980;2024-02-23T02:45:52;98313.46;;;5.62;84.28
57412;BME280;43247;52.828;-8.980;2024-02-23T02:46:52;98313.76;;;5.63;83.98
57412;BME280;43247;52.828;-8.980;2024-02-23T02:47:52;98311.56;;;5.69;83.55
57412;BME280;43247;52.828;-8.980;2024-02-23T02:48:52;98308.79;;;5.65;83.50
57412;BME280;43247;52.828;-8.980;2024-02-23T02:49:53;98311.23;;;5.66;83.37
57412;BME280;43247;52.828;-8.980;2024-02-23T02:50:53;98308.79;;;5.64;83.34
57412;BME280;43247;52.828;-8.980;2024-02-23T02:51:53;98304.46;;;5.67;83.13
57412;BME280;43247;52.828;-8.980;2024-02-23T02:52:53;98306.99;;;5.67;83.06
57412;BME280;43247;52.828;-8.980;2024-02-23T02:53:53;98306.41;;;5.63;83.12
57412;BME280;43247;52.828;-8.980;2024-02-23T02:54:54;98302.88;;;5.65;82.98
57412;BME280;43247;52.828;-8.980;2024-02-23T02:55:54;98303.65;;;5.66;82.90
57412;BME280;43247;52.828;-8.980;2024-02-23T02:56:54;98301.24;;;5.60;82.97
57412;BME280;43247;52.828;-8.980;2024-02-23T02:57:54;98297.76;;;5.63;82.90
57412;BME280;43247;52.828;-8.980;2024-02-23T02:58:55;98294.98;;;5.58;83.05
57412;BME280;43247;52.828;-8.980;2024-02-23T02:59:54;98294.24;;;5.60;82.92
57412;BME280;43247;52.828;-8.980;2024-02-23T03:00:55;98293.60;;;5.56;82.92
57412;BME280;43247;52.828;-8.980;2024-02-23T03:01:55;98294.32;;;5.55;82.81
57412;BME280;43247;52.828;-8.980;2024-02-23T03:02:55;98292.69;;;5.55;82.79
57412;BME280;43247;52.828;-8.980;2024-02-23T03:03:55;98290.38;;;5.55;82.81
57412;BME280;43247;52.828;-8.980;2024-02-23T03:04:55;98290.64;;;5.56;82.72
57412;BME280;43247;52.828;-8.980;2024-02-23T03:05:56;98287.35;;;5.53;82.76
57412;BME280;43247;52.828;-8.980;2024-02-23T03:06:56;98286.08;;;5.53;82.72
57412;BME280;43247;52.828;-8.980;2024-02-23T03:07:56;98284.38;;;5.52;82.76
57412;BME280;43247;52.828;-8.980;2024-02-23T03:08:56;98282.14;;;5.50;82.83
57412;BME280;43247;52.828;-8.980;2024-02-23T03:09:56;98280.68;;;5.50;82.88
57412;BME280;43247;52.828;-8.980;2024-02-23T03:10:56;98282.57;;;5.47;82.90
57412;BME280;43247;52.828;-8.980;2024-02-23T03:11:57;98284.36;;;5.48;82.86
57412;BME280;43247;52.828;-8.980;2024-02-23T03:12:57;98284.94;;;5.50;82.81
57412;BME280;43247;52.828;-8.980;2024-02-23T03:13:57;98285.22;;;5.45;82.90
57412;BME280;43247;52.828;-8.980;2024-02-23T03:14:57;98284.56;;;5.43;83.03
57412;BME280;43247;52.828;-8.980;2024-02-23T03:15:57;98285.90;;;5.42;83.01
57412;BME280;43247;52.828;-8.980;2024-02-23T03:16:58;98282.73;;;5.40;83.07
57412;BME280;43247;52.828;-8.980;2024-02-23T03:17:58;98281.58;;;5.37;83.10
57412;BME280;43247;52.828;-8.980;2024-02-23T03:18:58;98281.54;;;5.34;83.15
57412;BME280;43247;52.828;-8.980;2024-02-23T03:19:58;98282.00;;;5.34;83.13
57412;BME280;43247;52.828;-8.980;2024-02-23T03:20:58;98279.31;;;5.33;83.12
57412;BME280;43247;52.828;-8.980;2024-02-23T03:21:59;98278.19;;;5.33;83.07
57412;BME280;43247;52.828;-8.980;2024-02-23T03:22:59;98279.11;;;5.31;83.08
57412;BME280;43247;52.828;-8.980;2024-02-23T03:23:59;98279.99;;;5.29;83.06
57412;BME280;43247;52.828;-8.980;2024-02-23T03:24:59;98278.04;;;5.29;83.06
57412;BME280;43247;52.828;-8.980;2024-02-23T03:25:59;98278.37;;;5.28;83.06
57412;BME280;43247;52.828;-8.980;2024-02-23T03:26:59;98273.68;;;5.27;83.05
57412;BME280;43247;52.828;-8.980;2024-02-23T03:28:00;98275.75;;;5.26;83.05
57412;BME280;43247;52.828;-8.980;2024-02-23T03:29:00;98276.77;;;5.24;83.05
57412;BME280;43247;52.828;-8.980;2024-02-23T03:30:00;98279.49;;;5.23;82.97
57412;BME280;43247;52.828;-8.980;2024-02-23T03:31:00;98276.03;;;5.22;82.96
57412;BME280;43247;52.828;-8.980;2024-02-23T03:32:01;98276.97;;;5.21;82.92
57412;BME280;43247;52.828;-8.980;2024-02-23T03:33:01;98276.57;;;5.21;82.88
57412;BME280;43247;52.828;-8.980;2024-02-23T03:34:02;98278.57;;;5.23;82.74
57412;BME280;43247;52.828;-8.980;2024-02-23T03:35:01;98281.22;;;5.19;82.78
57412;BME280;43247;52.828;-8.980;2024-02-23T03:36:02;98281.60;;;5.18;82.77
57412;BME280;43247;52.828;-8.980;2024-02-23T03:37:01;98281.44;;;5.17;82.73
57412;BME280;43247;52.828;-8.980;2024-02-23T03:38:02;98279.20;;;5.17;82.72
57412;BME280;43247;52.828;-8.980;2024-02-23T03:39:02;98282.23;;;5.16;82.67
57412;BME280;43247;52.828;-8.980;2024-02-23T03:40:03;98280.69;;;5.16;82.67
57412;BME280;43247;52.828;-8.980;2024-02-23T03:41:04;98278.38;;;5.16;82.61
57412;BME280;43247;52.828;-8.980;2024-02-23T03:42:04;98278.01;;;5.15;82.57
57412;BME280;43247;52.828;-8.980;2024-02-23T03:43:04;98277.18;;;5.14;82.60
57412;BME280;43247;52.828;-8.980;2024-02-23T03:44:04;98274.98;;;5.14;82.52
57412;BME280;43247;52.828;-8.980;2024-02-23T03:45:05;98272.49;;;5.14;82.51
57412;BME280;43247;52.828;-8.980;2024-02-23T03:46:06;98272.77;;;5.13;82.52
57412;BME280;43247;52.828;-8.980;2024-02-23T03:47:05;98271.68;;;5.13;82.54
57412;BME280;43247;52.828;-8.980;2024-02-23T03:48:05;98269.95;;;5.14;82.49
57412;BME280;43247;52.828;-8.980;2024-02-23T03:49:05;98269.53;;;5.13;82.51
57412;BME280;43247;52.828;-8.980;2024-02-23T03:50:06;98270.47;;;5.12;82.52
57412;BME280;43247;52.828;-8.980;2024-02-23T03:51:06;98266.37;;;5.11;82.53
57412;BME280;43247;52.828;-8.980;2024-02-23T03:52:06;98268.62;;;5.11;82.57
57412;BME280;43247;52.828;-8.980;2024-02-23T03:53:06;98267.71;;;5.11;82.57
57412;BME280;43247;52.828;-8.980;2024-02-23T03:54:06;98268.96;;;5.10;82.60
57412;BME280;43247;52.828;-8.980;2024-02-23T03:55:07;98268.15;;;5.09;82.61
57412;BME280;43247;52.828;-8.980;2024-02-23T03:56:06;98269.00;;;5.09;82.64
57412;BME280;43247;52.828;-8.980;2024-02-23T03:57:07;98271.06;;;5.09;82.66
57412;BME280;43247;52.828;-8.980;2024-02-23T03:58:07;98270.69;;;5.08;82.68
57412;BME280;43247;52.828;-8.980;2024-02-23T03:59:07;98273.95;;;5.16;83.03
57412;BME280;43247;52.828;-8.980;2024-02-23T04:00:08;98275.12;;;5.16;82.92
57412;BME280;43247;52.828;-8.980;2024-02-23T04:01:07;98277.51;;;5.15;82.83
57412;BME280;43247;52.828;-8.980;2024-02-23T04:02:08;98274.82;;;5.17;82.60
57412;BME280;43247;52.828;-8.980;2024-02-23T04:03:08;98275.55;;;5.20;82.40
57412;BME280;43247;52.828;-8.980;2024-02-23T04:04:08;98274.40;;;5.20;82.26
57412;BME280;43247;52.828;-8.980;2024-02-23T04:05:09;98275.23;;;5.19;82.19
57412;BME280;43247;52.828;-8.980;2024-02-23T04:06:09;98276.08;;;5.25;81.98
57412;BME280;43247;52.828;-8.980;2024-02-23T04:07:09;98273.93;;;5.25;81.93
57412;BME280;43247;52.828;-8.980;2024-02-23T04:08:09;98273.82;;;5.25;81.97
57412;BME280;43247;52.828;-8.980;2024-02-23T04:09:09;98274.07;;;5.26;81.97
57412;BME280;43247;52.828;-8.980;2024-02-23T04:10:10;98273.17;;;5.26;82.02
57412;BME280;43247;52.828;-8.980;2024-02-23T04:11:13;98274.67;;;5.24;82.09
57412;BME280;43247;52.828;-8.980;2024-02-23T04:12:10;98276.03;;;5.25;82.12
57412;BME280;43247;52.828;-8.980;2024-02-23T04:13:10;98274.25;;;5.25;82.12
57412;BME280;43247;52.828;-8.980;2024-02-23T04:14:10;98279.02;;;5.27;82.11
57412;BME280;43247;52.828;-8.980;2024-02-23T04:15:11;98280.85;;;5.28;82.11
57412;BME280;43247;52.828;-8.980;2024-02-23T04:16:11;98278.42;;;5.27;82.07
57412;BME280;43247;52.828;-8.980;2024-02-23T04:17:11;98277.01;;;5.22;82.22
57412;BME280;43247;52.828;-8.980;2024-02-23T04:18:11;98277.40;;;5.24;82.26
57412;BME280;43247;52.828;-8.980;2024-02-23T04:19:11;98282.87;;;5.24;82.29
57412;BME280;43247;52.828;-8.980;2024-02-23T04:20:11;98280.01;;;5.24;82.39
57412;BME280;43247;52.828;-8.980;2024-02-23T04:21:12;98278.93;;;5.22;82.49
57412;BME280;43247;52.828;-8.980;2024-02-23T04:22:12;98275.87;;;5.24;82.46
57412;BME280;43247;52.828;-8.980;2024-02-23T04:23:12;98276.46;;;5.23;82.50
57412;BME280;43247;52.828;-8.980;2024-02-23T04:24:12;98278.36;;;5.20;82.60
57412;BME280;43247;52.828;-8.980;2024-02-23T04:25:12;98279.29;;;5.22;82.65
57412;BME280;43247;52.828;-8.980;2024-02-23T04:26:13;98280.45;;;5.21;82.68
57412;BME280;43247;52.828;-8.980;2024-02-23T04:27:13;98280.61;;;5.21;82.69
57412;BME280;43247;52.828;-8.980;2024-02-23T04:28:13;98279.21;;;5.21;82.75
57412;BME280;43247;52.828;-8.980;2024-02-23T04:29:13;98278.73;;;5.20;82.88
57412;BME280;43247;52.828;-8.980;2024-02-23T04:30:14;98276.42;;;5.21;82.85
57412;BME280;43247;52.828;-8.980;2024-02-23T04:31:14;98276.92;;;5.19;82.94
57412;BME280;43247;52.828;-8.980;2024-02-23T04:32:14;98277.58;;;5.26;83.09
57412;BME280;43247;52.828;-8.980;2024-02-23T04:33:14;98275.57;;;5.30;83.01
57412;BME280;43247;52.828;-8.980;2024-02-23T04:34:15;98276.01;;;5.31;82.92
57412;BME280;43247;52.828;-8.980;2024-02-23T04:35:14;98276.61;;;5.29;82.95
57412;BME280;43247;52.828;-8.980;2024-02-23T04:36:14;98278.57;;;5.36;82.72
57412;BME280;43247;52.828;-8.980;2024-02-23T04:37:15;98280.85;;;5.37;82.68
57412;BME280;43247;52.828;-8.980;2024-02-23T04:38:15;98279.92;;;5.33;82.74
57412;BME280;43247;52.828;-8.980;2024-02-23T04:39:15;98282.17;;;5.36;82.68
57412;BME280;43247;52.828;-8.980;2024-02-23T04:40:16;98284.07;;;5.38;82.58
57412;BME280;43247;52.828;-8.980;2024-02-23T04:41:19;98284.11;;;5.39;82.61
57412;BME280;43247;52.828;-8.980;2024-02-23T04:42:16;98284.08;;;5.41;82.55
57412;BME280;43247;52.828;-8.980;2024-02-23T04:43:16;98284.61;;;5.38;82.65
57412;BME280;43247;52.828;-8.980;2024-02-23T04:44:16;98281.38;;;5.39;82.64
57412;BME280;43247;52.828;-8.980;2024-02-23T04:45:16;98283.18;;;5.43;82.57
57412;BME280;43247;52.828;-8.980;2024-02-23T04:46:16;98280.54;;;5.40;82.69
57412;BME280;43247;52.828;-8.980;2024-02-23T04:47:16;98284.51;;;5.42;82.62
57412;BME280;43247;52.828;-8.980;2024-02-23T04:48:17;98284.87;;;5.40;82.70
57412;BME280;43247;52.828;-8.980;2024-02-23T04:49:17;98285.43;;;5.40;82.69
57412;BME280;43247;52.828;-8.980;2024-02-23T04:50:17;98286.33;;;5.40;82.74
57412;BME280;43247;52.828;-8.980;2024-02-23T04:51:17;98287.77;;;5.40;82.78
57412;BME280;43247;52.828;-8.980;2024-02-23T04:52:18;98286.79;;;5.37;82.90
57412;BME280;43247;52.828;-8.980;2024-02-23T04:53:18;98285.41;;;5.39;82.85
57412;BME280;43247;52.828;-8.980;2024-02-23T04:54:18;98285.45;;;5.35;82.98
57412;BME280;43247;52.828;-8.980;2024-02-23T04:55:18;98286.40;;;5.36;83.00
57412;BME280;43247;52.828;-8.980;2024-02-23T04:56:18;98284.82;;;5.36;83.03
57412;BME280;43247;52.828;-8.980;2024-02-23T04:57:18;98284.63;;;5.35;83.08
57412;BME280;43247;52.828;-8.980;2024-02-23T04:58:19;98286.82;;;5.35;83.17
57412;BME280;43247;52.828;-8.980;2024-02-23T04:59:19;98285.35;;;5.35;83.17
57412;BME280;43247;52.828;-8.980;2024-02-23T05:00:19;98286.86;;;5.35;83.22
57412;BME280;43247;52.828;-8.980;2024-02-23T05:01:19;98287.73;;;5.32;83.35
57412;BME280;43247;52.828;-8.980;2024-02-23T05:02:19;98289.78;;;5.33;83.33
57412;BME280;43247;52.828;-8.980;2024-02-23T05:03:19;98287.58;;;5.32;83.39
57412;BME280;43247;52.828;-8.980;2024-02-23T05:04:20;98288.29;;;5.32;83.42
57412;BME280;43247;52.828;-8.980;2024-02-23T05:05:20;98280.67;;;5.32;83.43
57412;BME280;43247;52.828;-8.980;2024-02-23T05:06:20;98280.09;;;5.30;83.56
57412;BME280;43247;52.828;-8.980;2024-02-23T05:07:20;98280.82;;;5.31;83.54
57412;BME280;43247;52.828;-8.980;2024-02-23T05:08:20;98279.81;;;5.32;83.52
57412;BME280;43247;52.828;-8.980;2024-02-23T05:09:21;98287.51;;;5.33;83.55
57412;BME280;43247;52.828;-8.980;2024-02-23T05:10:21;98294.11;;;5.32;83.59
57412;BME280;43247;52.828;-8.980;2024-02-23T05:11:21;98298.92;;;5.32;83.65
57412;BME280;43247;52.828;-8.980;2024-02-23T05:12:21;98297.24;;;5.32;83.73
57412;BME280;43247;52.828;-8.980;2024-02-23T05:13:21;98295.58;;;5.33;83.77
57412;BME280;43247;52.828;-8.980;2024-02-23T05:14:21;98291.39;;;5.31;83.84
57412;BME280;43247;52.828;-8.980;2024-02-23T05:15:22;98287.55;;;5.31;83.89
57412;BME280;43247;52.828;-8.980;2024-02-23T05:16:22;98283.59;;;5.30;84.01
57412;BME280;43247;52.828;-8.980;2024-02-23T05:17:22;98283.89;;;5.31;84.10
57412;BME280;43247;52.828;-8.980;2024-02-23T05:18:22;98283.26;;;5.32;84.14